Miromar Lakes, Florida
Current Conditions -  °F | °C
As of 4:53 PM on Monday 26 Jan 2015 (Local Time) from KRSW Reporting Station
Broken Clouds Broken Clouds  
Wind Chill: 66°   Ceiling: 5000
Heat Index: 66°   Visibility: 10mi
Dew Point: 47°   Wind: 14mph
Humidity: 50%   Direction: 290°WNW
Pressure: 29.92"   Gusts: 25mph
Location:  26.4783°N, 81.7306°W
Report Text: KRSW 262153Z 29012G22KT 10SM BKN050 19/08 A2992 RMK AO2 PK WND 30026/2104 SLP129 T01890083
Loading
Personal Weather Stations






























Interactive Weather Map New forecast layout! Learn more

10-Day Weather Forecast

Advertisements
Track Severe Weather on mobile